Time;durP1;ratioP1;P1;durP2;ratioP2;P2;SDS_P1;SDS_P2;PMS_P1;PMS_P2;Temp;Humidity;BMP_temperature;BMP_pressure;BME280_temperature;BME280_humidity;BME280_pressure;Samples;Min_cycle;Max_cycle;Signal;HPM_P1;HPM_P2
2022/05/18 00:00:50;;;;;;;9.30;6.60;;;17.80;99.90;;;;;;4883197;29;20058;-91
2022/05/18 00:03:19;;;;;;;10.77;6.93;;;17.80;99.90;;;;;;4915921;29;20111;-90
2022/05/18 00:05:45;;;;;;;11.05;6.90;;;17.70;99.90;;;;;;4898305;29;20052;-92
2022/05/18 00:08:12;;;;;;;10.75;7.07;;;17.70;99.90;;;;;;4898648;29;20060;-94
2022/05/18 00:10:40;;;;;;;10.80;7.18;;;17.70;99.90;;;;;;4898469;29;20449;-91
2022/05/18 00:13:07;;;;;;;10.93;7.20;;;17.60;99.90;;;;;;4899144;29;20047;-91
2022/05/18 00:15:33;;;;;;;10.93;7.28;;;17.60;99.90;;;;;;4882629;29;20087;-89
2022/05/18 00:17:59;;;;;;;11.55;7.13;;;17.60;99.90;;;;;;4898230;29;20044;-92
2022/05/18 00:20:25;;;;;;;13.43;7.65;;;17.60;99.90;;;;;;4898684;29;20378;-93
2022/05/18 00:22:57;;;;;;;10.65;7.28;;;17.60;99.90;;;;;;4899197;29;20467;-89
2022/05/18 00:25:25;;;;;;;11.52;7.03;;;17.50;99.90;;;;;;4915585;29;20401;-93
2022/05/18 00:27:53;;;;;;;13.25;7.22;;;17.50;99.90;;;;;;4898237;29;20056;-91
2022/05/18 00:30:20;;;;;;;11.20;7.30;;;17.40;99.90;;;;;;4915796;29;20055;-91
2022/05/18 00:32:47;;;;;;;10.63;6.18;;;17.40;99.90;;;;;;4897636;29;20048;-90
2022/05/18 00:35:14;;;;;;;11.23;6.70;;;17.40;99.90;;;;;;4916017;29;20063;-92
2022/05/18 00:37:40;;;;;;;11.63;7.20;;;17.40;99.90;;;;;;4915559;29;20075;-90
2022/05/18 00:40:08;;;;;;;10.60;6.50;;;17.40;99.90;;;;;;4898553;29;20537;-90
2022/05/18 00:42:33;;;;;;;10.40;6.72;;;17.30;99.90;;;;;;4882373;29;21003;-91
2022/05/18 00:44:59;;;;;;;11.15;6.95;;;17.30;99.90;;;;;;4915200;29;20083;-91
2022/05/18 00:47:24;;;;;;;11.68;6.57;;;17.30;99.90;;;;;;4914331;29;20076;-90
2022/05/18 00:49:58;;;;;;;9.93;6.45;;;17.20;99.90;;;;;;4882085;29;20405;-94
2022/05/18 00:52:35;;;;;;;11.57;7.72;;;17.20;99.90;;;;;;4882671;29;20059;-90
2022/05/18 00:55:02;;;;;;;11.65;7.20;;;17.20;99.90;;;;;;4915118;29;20044;-90
2022/05/18 00:57:38;;;;;;;12.65;6.82;;;17.20;99.90;;;;;;4914853;29;20052;-91
2022/05/18 01:00:09;;;;;;;10.70;6.80;;;17.20;99.90;;;;;;4882340;29;20067;-90
2022/05/18 01:02:39;;;;;;;11.68;6.75;;;17.20;99.90;;;;;;4914147;29;20047;-90
2022/05/18 01:05:08;;;;;;;11.65;7.05;;;17.10;99.90;;;;;;4897914;29;20059;-91
2022/05/18 01:07:38;;;;;;;10.40;6.75;;;17.10;99.90;;;;;;4914134;29;20589;-91
2022/05/18 01:10:05;;;;;;;9.18;6.47;;;17.10;99.90;;;;;;4898037;29;20087;-90
2022/05/18 01:12:31;;;;;;;9.88;6.95;;;17.10;99.90;;;;;;4898561;29;20055;-90
2022/05/18 01:15:02;;;;;;;9.60;6.68;;;17.00;99.90;;;;;;4897944;29;20052;-91
2022/05/18 01:17:33;;;;;;;9.15;6.38;;;17.00;99.90;;;;;;4898879;29;20122;-89
2022/05/18 01:20:07;;;;;;;10.13;6.30;;;17.00;99.90;;;;;;4898346;29;20048;-92
2022/05/18 01:22:46;;;;;;;10.80;6.20;;;17.00;99.90;;;;;;4897459;29;20048;-92
2022/05/18 01:25:53;;;;;;;9.73;6.60;;;17.00;99.90;;;;;;4915503;29;20052;-90
2022/05/18 01:28:23;;;;;;;10.07;6.15;;;16.90;99.90;;;;;;4898073;29;20051;-90
2022/05/18 01:30:48;;;;;;;9.18;5.80;;;16.90;99.90;;;;;;4881624;29;20050;-91
2022/05/18 01:33:17;;;;;;;9.52;6.18;;;16.90;99.90;;;;;;4882203;29;20044;-91
2022/05/18 01:35:45;;;;;;;10.13;6.13;;;16.90;99.90;;;;;;4897669;29;20052;-90
2022/05/18 01:38:15;;;;;;;10.10;6.53;;;16.90;99.90;;;;;;4898310;29;20107;-90
2022/05/18 01:40:51;;;;;;;8.98;6.57;;;16.80;99.90;;;;;;4882456;29;20044;-90
2022/05/18 01:43:29;;;;;;;10.27;6.30;;;16.80;99.90;;;;;;4897388;29;20047;-90
2022/05/18 01:45:57;;;;;;;9.45;6.15;;;16.80;99.90;;;;;;4882484;29;20052;-89
2022/05/18 01:48:27;;;;;;;8.85;6.05;;;16.80;99.90;;;;;;4914851;29;20166;-90
2022/05/18 01:50:54;;;;;;;9.88;5.50;;;16.80;99.90;;;;;;4897569;29;20069;-90
2022/05/18 01:53:20;;;;;;;9.68;5.97;;;16.80;99.90;;;;;;4897667;29;20480;-90
2022/05/18 01:55:45;;;;;;;9.75;6.18;;;16.80;99.90;;;;;;4914505;29;20135;-92
2022/05/18 01:58:14;;;;;;;9.10;5.60;;;16.70;99.90;;;;;;4897660;29;20100;-89
2022/05/18 02:00:40;;;;;;;8.90;5.45;;;16.70;99.90;;;;;;4914296;29;20053;-90
2022/05/18 02:03:06;;;;;;;9.00;5.55;;;16.70;99.90;;;;;;4914660;29;20114;-90
2022/05/18 02:05:32;;;;;;;9.70;5.97;;;16.70;99.90;;;;;;4865836;29;20481;-90
2022/05/18 02:07:58;;;;;;;8.60;5.47;;;16.60;99.90;;;;;;4894012;29;20540;-90
2022/05/18 02:10:24;;;;;;;9.43;5.75;;;16.60;99.90;;;;;;4895164;29;20075;-90
2022/05/18 02:12:54;;;;;;;9.52;6.40;;;16.60;99.90;;;;;;4894385;29;20048;-90
2022/05/18 02:15:22;;;;;;;8.45;5.43;;;16.60;99.90;;;;;;4893511;29;20089;-90
2022/05/18 02:17:49;;;;;;;9.13;5.68;;;16.60;99.90;;;;;;4893677;29;20103;-91
2022/05/18 02:20:16;;;;;;;9.52;5.63;;;16.60;99.90;;;;;;4893932;29;20379;-89
2022/05/18 02:22:42;;;;;;;9.77;6.10;;;16.60;99.90;;;;;;4878470;29;20124;-89
2022/05/18 02:25:08;;;;;;;9.07;5.93;;;16.60;99.90;;;;;;4879879;29;20508;-90
2022/05/18 02:27:34;;;;;;;11.35;6.55;;;16.50;99.90;;;;;;4878539;29;20055;-89
2022/05/18 02:30:01;;;;;;;9.75;6.25;;;16.50;99.90;;;;;;4879670;29;20410;-89
2022/05/18 02:32:27;;;;;;;9.57;6.40;;;16.40;99.90;;;;;;4879010;29;20127;-89
2022/05/18 02:34:52;;;;;;;9.25;6.32;;;16.40;99.90;;;;;;4879171;29;20176;-89
2022/05/18 02:37:18;;;;;;;10.15;6.40;;;16.40;99.90;;;;;;4879251;29;20401;-89
2022/05/18 02:39:44;;;;;;;10.48;6.30;;;16.40;99.90;;;;;;4893186;29;20048;-90
2022/05/18 02:42:09;;;;;;;11.13;6.97;;;16.30;99.90;;;;;;4862582;29;20119;-89
2022/05/18 02:44:35;;;;;;;11.48;6.57;;;16.30;99.90;;;;;;4893071;29;20056;-89
2022/05/18 02:47:01;;;;;;;10.52;6.90;;;16.30;99.90;;;;;;4894050;29;20491;-90
2022/05/18 02:49:27;;;;;;;12.40;7.22;;;16.20;99.90;;;;;;4893611;29;20044;-90
2022/05/18 02:51:53;;;;;;;10.00;7.38;;;16.20;99.90;;;;;;4894704;29;20071;-90
2022/05/18 02:57:05;;;;;;;12.55;7.82;;;16.20;99.90;;;;;;4877548;29;20075;-90
2022/05/18 02:59:31;;;;;;;10.88;7.25;;;16.20;99.90;;;;;;4893704;29;20052;-89
2022/05/18 03:01:57;;;;;;;10.85;7.68;;;16.10;99.90;;;;;;4878475;29;20137;-90
2022/05/18 03:04:23;;;;;;;9.95;7.40;;;16.10;99.90;;;;;;4896288;29;20048;-89
2022/05/18 03:06:49;;;;;;;11.80;7.47;;;16.10;99.90;;;;;;4894056;29;20079;-89
2022/05/18 03:09:15;;;;;;;12.82;8.95;;;16.00;99.90;;;;;;4894398;29;20459;-89
2022/05/18 03:11:41;;;;;;;11.55;8.30;;;16.00;99.90;;;;;;4895430;29;20566;-89
2022/05/18 03:14:07;;;;;;;10.75;7.70;;;15.90;99.90;;;;;;4894663;29;20049;-89
2022/05/18 03:16:33;;;;;;;12.25;8.48;;;15.90;99.90;;;;;;4893052;29;20057;-89
2022/05/18 03:18:59;;;;;;;11.32;7.75;;;15.90;99.90;;;;;;4894908;29;20049;-89
2022/05/18 03:24:10;;;;;;;10.60;8.15;;;15.80;99.90;;;;;;4880094;29;20387;-89
2022/05/18 03:26:36;;;;;;;11.73;7.85;;;15.70;99.90;;;;;;4876627;29;20092;-90
2022/05/18 03:29:02;;;;;;;11.13;8.18;;;15.70;99.90;;;;;;4894456;29;20053;-90
2022/05/18 03:31:27;;;;;;;11.60;8.55;;;15.70;99.90;;;;;;4894419;29;20049;-89
2022/05/18 03:33:56;;;;;;;10.77;7.95;;;15.70;99.90;;;;;;4892774;29;20100;-90
2022/05/18 03:36:22;;;;;;;10.80;8.35;;;15.60;99.90;;;;;;4877058;29;20044;-88
2022/05/18 03:38:49;;;;;;;12.63;9.20;;;15.60;99.90;;;;;;4894178;29;20041;-90
2022/05/18 03:41:16;;;;;;;10.52;8.10;;;15.60;99.90;;;;;;4876861;29;20056;-90
2022/05/18 03:43:42;;;;;;;11.23;8.50;;;15.60;99.90;;;;;;4876721;29;20048;-89
2022/05/18 03:46:08;;;;;;;12.73;9.70;;;15.60;99.90;;;;;;4895259;29;20049;-90
2022/05/18 03:48:35;;;;;;;12.48;9.10;;;15.50;99.90;;;;;;4880375;29;20080;-89
2022/05/18 03:51:03;;;;;;;12.43;9.50;;;15.50;99.90;;;;;;4896540;29;20060;-89
2022/05/18 03:53:29;;;;;;;11.30;8.82;;;15.50;99.90;;;;;;4896255;29;20044;-89
2022/05/18 03:55:55;;;;;;;12.57;9.77;;;15.50;99.90;;;;;;4895080;29;20090;-89
2022/05/18 03:58:21;;;;;;;13.68;9.98;;;15.50;99.90;;;;;;4896033;29;20055;-89
2022/05/18 04:00:49;;;;;;;11.60;9.25;;;15.50;99.90;;;;;;4896877;29;20052;-90
2022/05/18 04:03:16;;;;;;;13.45;9.80;;;15.50;99.90;;;;;;4880178;29;20442;-89
2022/05/18 04:05:42;;;;;;;10.60;9.07;;;15.50;99.90;;;;;;4895678;29;20051;-89
2022/05/18 04:08:10;;;;;;;12.07;10.05;;;15.50;99.90;;;;;;4905095;29;20497;-89
2022/05/18 04:10:38;;;;;;;11.88;9.63;;;15.50;99.90;;;;;;4914999;29;20059;-89
2022/05/18 04:13:04;;;;;;;12.93;10.55;;;15.60;99.90;;;;;;4899264;29;20397;-89
2022/05/18 04:15:30;;;;;;;13.90;9.75;;;15.50;99.90;;;;;;4915674;29;20360;-89
2022/05/18 04:17:56;;;;;;;13.00;9.68;;;15.60;99.90;;;;;;4914375;29;20121;-90
2022/05/18 04:20:23;;;;;;;11.55;9.30;;;15.60;99.90;;;;;;4915826;29;20102;-89
2022/05/18 04:22:50;;;;;;;13.43;9.57;;;15.70;99.90;;;;;;4898029;29;20180;-90
2022/05/18 04:25:20;;;;;;;14.60;10.65;;;15.70;99.90;;;;;;4898581;29;20048;-90
2022/05/18 04:27:47;;;;;;;11.98;10.07;;;15.80;99.90;;;;;;4882642;29;20052;-90
2022/05/18 04:30:18;;;;;;;13.32;9.73;;;15.80;99.90;;;;;;4883164;29;20047;-89
2022/05/18 04:32:43;;;;;;;11.15;9.25;;;15.80;99.90;;;;;;4915179;29;20048;-89
2022/05/18 04:35:12;;;;;;;11.90;9.75;;;15.80;99.90;;;;;;4915806;29;20401;-90
2022/05/18 04:37:38;;;;;;;13.48;10.60;;;15.90;99.90;;;;;;4897496;29;20088;-89
2022/05/18 04:40:05;;;;;;;13.07;10.32;;;15.90;99.90;;;;;;4898585;29;20458;-89
2022/05/18 04:42:31;;;;;;;12.65;9.55;;;16.00;99.90;;;;;;4898581;29;20515;-90
2022/05/18 04:44:57;;;;;;;15.10;10.48;;;16.00;99.90;;;;;;4898544;29;20052;-90
2022/05/18 04:47:24;;;;;;;11.75;10.27;;;16.10;99.90;;;;;;4898907;29;20044;-90
2022/05/18 04:49:51;;;;;;;11.65;10.18;;;16.10;99.90;;;;;;4915439;29;20099;-90
2022/05/18 04:52:20;;;;;;;12.25;10.02;;;16.10;99.90;;;;;;4898011;29;20099;-90
2022/05/18 04:54:46;;;;;;;12.32;10.32;;;16.20;99.90;;;;;;4882659;29;20090;-89
2022/05/18 04:57:12;;;;;;;14.38;10.90;;;16.30;99.90;;;;;;4898440;29;20383;-90
2022/05/18 04:59:37;;;;;;;13.48;10.80;;;16.40;99.90;;;;;;4897348;29;20135;-89
2022/05/18 05:02:04;;;;;;;11.50;10.27;;;16.40;99.90;;;;;;4898603;29;20139;-90
2022/05/18 05:04:31;;;;;;;14.25;10.85;;;16.50;99.90;;;;;;4898937;29;20056;-90
2022/05/18 05:06:56;;;;;;;13.73;10.25;;;16.50;99.90;;;;;;4898468;29;20044;-89
2022/05/18 05:09:24;;;;;;;15.02;11.20;;;16.60;99.90;;;;;;4900059;29;20063;-90
2022/05/18 05:11:50;;;;;;;12.80;11.10;;;16.70;99.90;;;;;;4885300;29;20048;-90
2022/05/18 05:14:16;;;;;;;13.55;11.48;;;16.80;99.90;;;;;;4901211;29;20044;-90
2022/05/18 05:16:42;;;;;;;13.95;11.15;;;16.80;99.90;;;;;;4899896;29;20044;-90
2022/05/18 05:19:07;;;;;;;14.70;11.70;;;16.90;99.90;;;;;;4916309;29;20040;-89
2022/05/18 05:21:35;;;;;;;13.68;11.98;;;17.00;99.90;;;;;;4912753;29;20150;-90
2022/05/18 05:24:02;;;;;;;14.45;11.65;;;17.10;99.90;;;;;;4915165;29;20052;-90
2022/05/18 05:26:28;;;;;;;13.02;11.45;;;17.20;99.90;;;;;;4897821;29;20092;-90
2022/05/18 05:28:53;;;;;;;15.63;12.13;;;17.30;99.90;;;;;;4897520;29;20437;-89
2022/05/18 05:31:19;;;;;;;15.70;11.95;;;17.40;99.90;;;;;;4881823;29;20126;-91
2022/05/18 05:33:44;;;;;;;12.77;11.30;;;17.50;99.90;;;;;;4897268;29;20044;-90
2022/05/18 05:36:10;;;;;;;14.77;11.93;;;17.50;99.90;;;;;;4897742;29;20104;-90
2022/05/18 05:38:35;;;;;;;14.98;12.55;;;17.70;99.90;;;;;;4881463;29;20450;-90
2022/05/18 05:41:01;;;;;;;14.20;12.00;;;17.70;99.90;;;;;;4915063;29;20044;-91
2022/05/18 05:43:28;;;;;;;13.35;11.93;;;17.90;99.90;;;;;;4914270;29;20052;-90
2022/05/18 05:45:57;;;;;;;13.02;11.30;;;17.90;99.90;;;;;;4881411;29;20051;-90
2022/05/18 05:48:24;;;;;;;13.20;11.80;;;18.00;99.90;;;;;;4881778;29;20088;-90
2022/05/18 05:50:49;;;;;;;13.15;11.68;;;18.10;99.90;;;;;;4896619;29;20044;-90
2022/05/18 05:53:15;;;;;;;13.70;11.75;;;18.20;99.90;;;;;;4882042;29;20044;-91
2022/05/18 05:55:40;;;;;;;13.80;11.95;;;18.30;99.90;;;;;;4913841;29;20055;-90
2022/05/18 05:58:06;;;;;;;13.70;12.20;;;18.50;99.90;;;;;;4914372;29;20040;-91
2022/05/18 06:00:32;;;;;;;13.13;11.55;;;18.50;99.90;;;;;;4896717;29;20684;-91
2022/05/18 06:02:57;;;;;;;12.98;11.30;;;18.60;99.90;;;;;;4896888;29;20043;-91
2022/05/18 06:05:23;;;;;;;14.05;11.98;;;18.70;99.90;;;;;;4880983;29;20043;-91
2022/05/18 06:07:49;;;;;;;15.00;11.90;;;18.80;99.90;;;;;;4913263;29;20078;-91
2022/05/18 06:10:15;;;;;;;13.95;11.80;;;18.90;99.90;;;;;;4896684;29;20526;-91
2022/05/18 06:12:41;;;;;;;13.90;12.07;;;18.90;99.90;;;;;;4913542;29;20123;-90
2022/05/18 06:15:08;;;;;;;13.50;11.45;;;19.00;99.90;;;;;;4881945;29;20131;-91
2022/05/18 06:17:33;;;;;;;14.63;11.95;;;19.10;99.90;;;;;;4880759;29;20404;-91
2022/05/18 06:19:59;;;;;;;14.98;11.88;;;19.20;99.90;;;;;;4913574;29;20040;-91
2022/05/18 06:22:25;;;;;;;12.88;11.35;;;19.20;99.90;;;;;;4913705;29;20051;-91
2022/05/18 06:24:52;;;;;;;13.57;12.18;;;19.30;99.90;;;;;;4896315;29;20449;-91
2022/05/18 06:27:21;;;;;;;14.07;12.60;;;19.40;99.90;;;;;;4896743;29;20078;-91
2022/05/18 06:29:50;;;;;;;13.25;11.85;;;19.50;99.90;;;;;;4913287;29;20072;-90
2022/05/18 06:32:17;;;;;;;13.55;12.05;;;19.50;99.90;;;;;;4912285;29;20055;-90
2022/05/18 06:34:44;;;;;;;13.95;11.82;;;19.60;99.90;;;;;;4895636;29;20553;-90
2022/05/18 06:37:11;;;;;;;13.80;12.30;;;19.70;99.90;;;;;;4913874;29;20040;-91
2022/05/18 06:39:37;;;;;;;14.27;11.73;;;19.80;99.90;;;;;;4895895;29;20054;-91
2022/05/18 06:42:03;;;;;;;14.88;12.05;;;19.80;99.90;;;;;;4897098;29;20044;-91
2022/05/18 06:44:29;;;;;;;15.93;12.35;;;19.90;99.90;;;;;;4896626;29;20040;-91
2022/05/18 06:46:58;;;;;;;14.63;11.93;;;20.00;99.90;;;;;;4880985;29;20055;-91
2022/05/18 06:49:26;;;;;;;13.57;11.90;;;20.10;99.90;;;;;;4896539;29;20044;-90
2022/05/18 06:51:52;;;;;;;13.18;11.77;;;20.20;99.90;;;;;;4896686;29;20059;-91
2022/05/18 06:54:18;;;;;;;14.02;12.38;;;20.30;99.90;;;;;;4913301;29;20097;-91
2022/05/18 06:56:44;;;;;;;13.35;11.77;;;20.40;99.90;;;;;;4913479;29;20056;-91
2022/05/18 06:59:12;;;;;;;13.50;11.68;;;20.50;99.90;;;;;;4881469;29;20044;-92
2022/05/18 07:01:38;;;;;;;14.25;11.60;;;20.60;99.90;;;;;;4880396;29;20080;-91
2022/05/18 07:04:05;;;;;;;13.88;12.10;;;20.70;99.90;;;;;;4913645;29;20046;-92
2022/05/18 07:06:37;;;;;;;14.00;11.70;;;20.80;99.90;;;;;;4880903;29;20176;-91
2022/05/18 07:09:07;;;;;;;14.43;11.18;;;20.80;99.90;;;;;;4881211;29;20083;-92
2022/05/18 07:11:35;;;;;;;14.13;11.75;;;21.00;99.90;;;;;;4880860;29;20052;-91
2022/05/18 07:14:03;;;;;;;13.43;11.35;;;21.00;99.90;;;;;;4896752;29;20092;-91
2022/05/18 07:16:29;;;;;;;12.98;11.05;;;21.10;99.90;;;;;;4880747;29;20048;-90
2022/05/18 07:18:55;;;;;;;12.77;10.05;;;21.20;99.90;;;;;;4880110;29;20496;-92
2022/05/18 07:21:22;;;;;;;13.15;11.13;;;21.30;99.90;;;;;;4897497;29;20129;-91
2022/05/18 07:23:48;;;;;;;12.40;11.05;;;21.30;99.90;;;;;;4899462;29;20095;-91
2022/05/18 07:26:14;;;;;;;14.18;10.95;;;21.40;99.90;;;;;;4899996;29;20048;-91
2022/05/18 07:28:40;;;;;;;13.18;11.05;;;21.50;99.90;;;;;;4884204;29;20434;-91
2022/05/18 07:31:07;;;;;;;13.85;10.82;;;21.50;99.90;;;;;;4900387;29;20131;-91
2022/05/18 07:33:33;;;;;;;12.52;10.98;;;21.70;99.90;;;;;;4916096;29;20575;-91
2022/05/18 07:35:59;;;;;;;12.30;10.43;;;21.70;99.90;;;;;;4899467;29;20048;-91
2022/05/18 07:38:27;;;;;;;13.57;10.18;;;21.80;99.90;;;;;;4899711;29;20055;-90
2022/05/18 07:40:53;;;;;;;13.48;10.88;;;21.90;99.90;;;;;;4883834;29;20394;-91
2022/05/18 07:43:19;;;;;;;12.85;10.65;;;22.00;99.90;;;;;;4916699;29;20040;-91
2022/05/18 07:45:45;;;;;;;14.38;11.23;;;22.10;99.90;;;;;;4898749;29;20040;-90
2022/05/18 07:48:11;;;;;;;11.35;9.55;;;22.20;99.90;;;;;;4899973;29;20048;-90
2022/05/18 07:50:37;;;;;;;13.80;9.50;;;22.20;99.90;;;;;;4898820;29;20059;-91
2022/05/18 07:53:03;;;;;;;13.80;9.98;;;22.30;99.90;;;;;;4900169;29;20471;-91
2022/05/18 07:55:28;;;;;;;11.95;9.45;;;22.40;99.90;;;;;;4916359;29;20557;-91
2022/05/18 07:57:54;;;;;;;11.88;10.23;;;22.50;99.90;;;;;;4898676;29;20051;-91
2022/05/18 08:00:23;;;;;;;11.90;8.93;;;22.60;99.90;;;;;;4898627;29;20107;-91
2022/05/18 08:02:48;;;;;;;13.00;9.52;;;22.70;99.90;;;;;;4916318;29;20040;-90
2022/05/18 08:05:14;;;;;;;13.57;9.20;;;22.80;99.90;;;;;;4899397;29;20104;-90
2022/05/18 08:07:45;;;;;;;12.48;9.27;;;22.90;99.90;;;;;;4898968;29;20052;-90
2022/05/18 08:15:41;;;;;;;12.18;9.07;;;23.20;99.90;;;;;;4898257;29;20060;-90
2022/05/18 08:18:07;;;;;;;12.85;9.18;;;23.20;99.90;;;;;;4916214;29;20332;-91
2022/05/18 08:20:33;;;;;;;12.88;8.70;;;23.30;99.90;;;;;;4898635;29;20548;-91
2022/05/18 08:22:59;;;;;;;11.88;8.48;;;23.40;99.90;;;;;;4883090;29;20409;-90
2022/05/18 08:25:25;;;;;;;12.15;8.27;;;23.50;99.90;;;;;;4898700;29;20055;-91
2022/05/18 08:27:51;;;;;;;14.07;7.75;;;23.50;99.90;;;;;;4898317;29;20055;-90
2022/05/18 08:30:19;;;;;;;10.43;7.50;;;23.60;99.90;;;;;;4898236;29;20056;-90
2022/05/18 08:32:46;;;;;;;12.77;9.02;;;23.60;99.90;;;;;;4898776;29;20457;-90
2022/05/18 08:35:14;;;;;;;13.13;8.90;;;23.70;99.90;;;;;;4898690;29;20098;-90
2022/05/18 08:37:48;;;;;;;11.30;8.48;;;23.70;99.90;;;;;;4898472;29;20048;-91
2022/05/18 08:40:29;;;;;;;12.93;8.32;;;23.80;99.90;;;;;;4915360;29;20047;-89
2022/05/18 08:42:55;;;;;;;;;;;23.90;99.90;;;;;;4883069;29;20059;-91
2022/05/18 08:45:22;;;;;;;12.75;7.72;;;23.80;99.90;;;;;;4897994;29;19922;-90
2022/05/18 08:48:00;;;;;;;12.48;7.65;;;24.00;99.90;;;;;;4897784;29;20067;-89
2022/05/18 08:50:27;;;;;;;10.13;7.55;;;24.00;99.90;;;;;;4898553;29;20450;-89
2022/05/18 08:52:59;;;;;;;10.25;7.40;;;24.10;99.90;;;;;;4898058;29;20051;-90
2022/05/18 08:56:03;;;;;;;10.43;7.63;;;24.10;99.90;;;;;;4915080;29;20055;-90
2022/05/18 08:58:33;;;;;;;12.52;8.15;;;24.20;99.90;;;;;;4897848;29;20058;-89
2022/05/18 09:01:05;;;;;;;11.43;7.93;;;24.20;99.90;;;;;;4898243;29;20045;-88
2022/05/18 09:03:42;;;;;;;11.30;8.65;;;24.30;99.90;;;;;;4898654;29;20048;-91
2022/05/18 09:06:29;;;;;;;14.32;10.25;;;24.20;99.90;;;;;;4898964;29;20071;-91
2022/05/18 09:11:59;;;;;;;11.98;9.52;;;24.30;99.90;;;;;;4894862;29;20391;-90
2022/05/18 09:14:28;;;;;;;11.55;8.75;;;24.30;99.90;;;;;;4895538;29;20041;-91
2022/05/18 09:17:20;;;;;;;10.45;8.13;;;24.30;99.90;;;;;;4895643;29;20052;-91
2022/05/18 09:19:48;;;;;;;11.98;8.95;;;24.40;99.90;;;;;;4891344;29;20069;-89
2022/05/18 09:22:29;;;;;;;12.77;7.90;;;24.50;99.90;;;;;;4879067;29;20053;-89
2022/05/18 09:25:21;;;;;;;10.68;8.07;;;24.50;99.90;;;;;;4894325;29;20480;-90
2022/05/18 09:28:18;;;;;;;11.25;8.10;;;24.60;99.90;;;;;;4893724;29;20044;-90
2022/05/18 09:31:30;;;;;;;9.75;6.82;;;24.70;99.90;;;;;;4880967;29;20184;-91
2022/05/18 09:34:28;;;;;;;10.70;8.05;;;24.70;99.90;;;;;;4878664;29;20409;-91
2022/05/18 09:37:13;;;;;;;11.98;10.13;;;24.80;99.90;;;;;;4894192;29;20103;-91
2022/05/18 09:39:43;;;;;;;11.82;9.60;;;24.80;99.90;;;;;;4894005;29;20093;-89
2022/05/18 09:42:14;;;;;;;11.18;9.02;;;24.80;99.90;;;;;;4878496;29;20045;-89
2022/05/18 09:45:05;;;;;;;12.10;9.35;;;25.00;99.90;;;;;;4894891;29;20084;-92
2022/05/18 09:47:36;;;;;;;14.02;9.20;;;24.90;99.90;;;;;;4894299;29;20100;-90
2022/05/18 09:50:06;;;;;;;12.38;8.20;;;24.90;99.90;;;;;;4895882;29;20080;-91
2022/05/18 09:52:34;;;;;;;13.27;8.77;;;24.90;99.90;;;;;;4894301;29;20402;-89
2022/05/18 09:55:01;;;;;;;10.90;8.02;;;25.00;99.90;;;;;;4893936;29;20048;-90
2022/05/18 09:57:42;;;;;;;9.75;7.35;;;25.00;99.90;;;;;;4877870;29;20049;-89
2022/05/18 10:00:12;;;;;;;9.25;6.22;;;25.10;99.90;;;;;;4894158;29;20045;-92
2022/05/18 10:08:11;;;;;;;11.85;8.57;;;25.20;99.90;;;;;;4893936;29;20052;-91
2022/05/18 10:10:38;;;;;;;11.73;8.05;;;25.30;99.90;;;;;;4895503;29;20084;-92
2022/05/18 10:13:14;;;;;;;11.60;8.10;;;25.40;99.90;;;;;;4895761;29;20111;-93
2022/05/18 10:15:48;;;;;;;13.25;8.77;;;25.50;99.90;;;;;;4894794;29;20490;-90
2022/05/18 10:18:41;;;;;;;13.80;10.82;;;25.50;99.90;;;;;;4894874;29;20068;-92
2022/05/18 10:21:13;;;;;;;12.75;10.88;;;25.50;99.90;;;;;;4862993;29;20045;-92
2022/05/18 10:24:04;;;;;;;11.43;9.77;;;25.50;99.90;;;;;;4878332;29;20048;-92
2022/05/18 10:26:39;;;;;;;11.60;8.15;;;25.50;99.90;;;;;;4878147;29;20526;-89
2022/05/18 10:29:14;;;;;;;13.10;9.77;;;25.50;99.90;;;;;;4878999;29;20135;-92
2022/05/18 10:31:46;;;;;;;13.93;11.55;;;25.50;99.90;;;;;;4894228;29;20053;-89
2022/05/18 10:34:22;;;;;;;13.73;11.50;;;25.60;99.90;;;;;;4895083;29;20063;-89
2022/05/18 10:36:55;;;;;;;14.55;12.18;;;25.50;99.90;;;;;;4878068;29;20049;-92
2022/05/18 10:39:40;;;;;;;14.57;12.43;;;25.50;99.90;;;;;;4864487;29;20442;-90
2022/05/18 10:42:20;;;;;;;14.95;11.88;;;25.60;99.90;;;;;;4894500;29;20064;-92
2022/05/18 10:44:46;;;;;;;15.43;12.27;;;25.60;99.90;;;;;;4896720;29;20405;-91
2022/05/18 10:47:35;;;;;;;15.90;13.27;;;25.60;99.90;;;;;;4897884;29;20091;-91
2022/05/18 10:50:21;;;;;;;15.15;12.85;;;25.60;99.90;;;;;;4881152;29;20399;-91
2022/05/18 10:52:47;;;;;;;14.27;11.98;;;25.60;99.90;;;;;;4898878;29;20053;-90
2022/05/18 10:55:16;;;;;;;14.18;10.98;;;25.60;99.90;;;;;;4880320;29;20049;-91
2022/05/18 10:58:05;;;;;;;14.20;11.15;;;25.70;99.90;;;;;;4905624;29;20044;-89
2022/05/18 11:00:49;;;;;;;17.13;10.90;;;25.60;99.90;;;;;;4901334;29;20053;-90
2022/05/18 11:03:28;;;;;;;14.88;10.75;;;25.60;99.90;;;;;;4871486;29;20449;-89
2022/05/18 11:06:09;;;;;;;13.45;8.80;;;25.60;99.90;;;;;;4882655;29;20048;-90
2022/05/18 11:08:34;;;;;;;12.63;10.65;;;25.60;99.90;;;;;;4911477;29;20084;-91
2022/05/18 11:11:41;;;;;;;12.60;8.35;;;25.60;99.90;;;;;;4917649;29;20048;-90
2022/05/18 11:14:20;;;;;;;11.57;7.50;;;25.60;99.90;;;;;;4918869;29;20401;-91
2022/05/18 11:17:10;;;;;;;10.95;7.90;;;25.60;99.90;;;;;;4886621;29;20052;-93
2022/05/18 11:19:48;;;;;;;12.43;7.60;;;25.60;99.90;;;;;;4886153;29;20086;-93
2022/05/18 11:22:36;;;;;;;12.93;8.15;;;25.60;99.90;;;;;;4884888;29;20096;-91
2022/05/18 11:25:20;;;;;;;13.80;9.55;;;25.60;99.90;;;;;;4917656;29;20056;-91
2022/05/18 11:28:00;;;;;;;13.23;8.77;;;25.60;99.90;;;;;;4899877;29;20401;-90
2022/05/18 11:31:06;;;;;;;12.57;9.35;;;25.60;99.90;;;;;;4900521;29;20052;-90
2022/05/18 11:33:42;;;;;;;12.55;9.43;;;25.60;99.90;;;;;;4898456;29;20056;-91
2022/05/18 11:36:45;;;;;;;14.52;10.15;;;25.70;99.90;;;;;;4900326;29;20411;-90
2022/05/18 11:39:25;;;;;;;13.80;10.02;;;25.70;99.90;;;;;;4916273;29;20055;-89
2022/05/18 11:42:11;;;;;;;11.98;9.27;;;25.80;99.90;;;;;;4916829;29;20052;-91
2022/05/18 11:45:00;;;;;;;13.93;9.95;;;25.80;99.90;;;;;;4899009;29;20126;-90
2022/05/18 11:47:44;;;;;;;13.45;9.80;;;26.00;99.90;;;;;;4899546;29;20099;-90
2022/05/18 11:50:26;;;;;;;15.20;12.18;;;26.10;99.90;;;;;;4899809;29;20063;-90
2022/05/18 11:53:13;;;;;;;14.00;11.45;;;26.20;99.90;;;;;;4898577;29;20056;-90
2022/05/18 11:55:53;;;;;;;16.10;13.77;;;26.30;99.90;;;;;;4899009;29;20056;-90
2022/05/18 11:59:10;;;;;;;16.38;14.25;;;26.40;99.90;;;;;;4899544;29;20048;-91
2022/05/18 12:02:01;;;;;;;18.85;15.00;;;26.50;99.90;;;;;;4808543;29;20045;-91
2022/05/18 12:04:56;;;;;;;15.18;12.30;;;26.60;99.90;;;;;;4839822;29;20057;-89
2022/05/18 12:07:40;;;;;;;13.60;11.55;;;26.60;99.90;;;;;;4823056;29;20062;-89
2022/05/18 12:10:37;;;;;;;14.38;11.25;;;26.50;99.90;;;;;;4825232;29;20128;-90
2022/05/18 12:13:18;;;;;;;12.77;10.48;;;26.50;99.90;;;;;;4808656;29;20110;-88
2022/05/18 12:16:15;;;;;;;16.83;11.10;;;26.40;99.90;;;;;;4838693;29;20049;-89
2022/05/18 12:19:01;;;;;;;14.90;12.38;;;26.40;99.90;;;;;;4823668;29;20526;-91
2022/05/18 12:21:40;;;;;;;14.45;12.02;;;26.50;99.90;;;;;;4838760;29;20132;-92
2022/05/18 12:24:07;;;;;;;18.88;10.75;;;26.60;99.90;;;;;;4839243;29;20054;-90
2022/05/18 12:26:37;;;;;;;16.17;13.45;;;26.50;99.90;;;;;;4839132;29;20494;-92
2022/05/18 12:29:04;;;;;;;13.43;10.68;;;26.60;99.90;;;;;;4824201;29;20124;-90
2022/05/18 12:31:30;;;;;;;14.23;12.07;;;26.60;99.90;;;;;;4838940;29;20057;-91
2022/05/18 12:34:05;;;;;;;13.05;9.90;;;26.60;99.90;;;;;;4808279;29;20342;-89
2022/05/18 12:36:44;;;;;;;14.18;11.02;;;26.60;99.90;;;;;;4823127;29;20107;-91
2022/05/18 12:39:14;;;;;;;13.07;9.90;;;26.60;99.90;;;;;;4889680;29;20060;-89
2022/05/18 12:41:52;;;;;;;13.10;10.53;;;26.60;99.90;;;;;;4895443;29;20057;-91
2022/05/18 12:44:43;;;;;;;14.68;11.00;;;26.50;99.90;;;;;;4897162;29;20288;-90
2022/05/18 12:47:19;;;;;;;13.82;9.85;;;26.30;99.90;;;;;;4896995;29;20048;-89
2022/05/18 12:49:49;;;;;;;12.40;9.13;;;26.30;99.90;;;;;;4894892;29;20048;-90
2022/05/18 12:52:44;;;;;;;16.10;9.65;;;26.20;99.90;;;;;;4894831;29;20072;-91
2022/05/18 12:55:36;;;;;;;12.30;8.57;;;26.30;99.90;;;;;;4896914;29;20135;-90
2022/05/18 12:58:10;;;;;;;15.52;13.20;;;26.40;99.90;;;;;;4880510;29;20041;-93
2022/05/18 13:01:01;;;;;;;16.20;12.00;;;26.50;99.90;;;;;;4879557;29;20063;-91
2022/05/18 13:04:07;;;;;;;16.42;12.73;;;26.50;99.90;;;;;;4864245;29;20143;-89
2022/05/18 13:06:39;;;;;;;16.23;13.57;;;26.50;99.90;;;;;;4895126;29;20362;-88
2022/05/18 13:09:26;;;;;;;18.13;14.88;;;26.40;99.90;;;;;;4911663;29;20107;-90
2022/05/18 13:11:59;;;;;;;15.77;13.32;;;26.40;99.90;;;;;;4915090;29;20056;-90
2022/05/18 13:14:31;;;;;;;16.88;13.57;;;26.40;99.90;;;;;;4897894;29;20572;-91